Time;durP1;ratioP1;P1;durP2;ratioP2;P2;SDS_P1;SDS_P2;PMS_P1;PMS_P2;Temp;Humidity;BMP_temperature;BMP_pressure;BME280_temperature;BME280_humidity;BME280_pressure;Samples;Min_cycle;Max_cycle;Signal;HPM_P1;HPM_P2
2023/12/08 00:00:00;;;;;;;;;;;;;;;;;;5086073;28;20369;-80
2023/12/08 00:02:25;;;;;;;;;;;;;;;;;;5094048;28;19908;-80
2023/12/08 00:04:50;;;;;;;;;;;;;;;;;;5095511;28;19908;-81
2023/12/08 00:07:15;;;;;;;;;;;;;;;;;;5093966;28;20356;-82
2023/12/08 00:09:40;;;;;;;;;;;;;;;;;;5094345;28;19943;-82
2023/12/08 00:12:05;;;;;;;;;;;;;;;;;;5094096;28;19908;-82
2023/12/08 00:14:30;;;;;;;;;;;;;;;;;;5093613;28;20143;-82
2023/12/08 00:16:56;;;;;;;;;;;;;;;;;;5096553;28;19991;-83
2023/12/08 00:19:21;;;;;;;;;;;;;;;;;;5099208;28;19908;-82
2023/12/08 00:21:46;;;;;;;;;;;;;;;;;;5097173;28;20389;-82
2023/12/08 00:24:11;;;;;;;;;;;;;;;;;;5089070;28;19971;-82
2023/12/08 00:26:36;;;;;;;;;;;;;;;;;;5098993;28;19931;-82
2023/12/08 00:29:01;;;;;;;;;;;;;;;;;;5097396;28;19908;-81
2023/12/08 00:31:26;;;;;;;;;;;;;;;;;;5097722;28;19909;-82
2023/12/08 00:33:51;;;;;;;;;;;;;;;;;;5097629;28;19958;-81
2023/12/08 00:36:17;;;;;;;;;;;;;;;;;;5097436;28;19908;-81
2023/12/08 00:38:42;;;;;;;;;;;;;;;;;;5097726;28;19908;-81
2023/12/08 00:41:08;;;;;;;;;;;;;;;;;;5090508;28;19908;-81
2023/12/08 00:43:33;;;;;;;;;;;;;;;;;;5098360;28;19915;-81
2023/12/08 00:45:58;;;;;;;;;;;;;;;;;;5097959;28;19929;-81
2023/12/08 00:48:23;;;;;;;;;;;;;;;;;;5097535;28;19915;-81
2023/12/08 00:50:48;;;;;;;;;;;;;;;;;;5095805;28;19939;-81
2023/12/08 00:53:13;;;;;;;;;;;;;;;;;;5091270;28;19916;-81
2023/12/08 00:55:38;;;;;;;;;;;;;;;;;;5098587;28;20439;-82
2023/12/08 00:58:04;;;;;;;;;;;;;;;;;;5097816;28;19908;-81
2023/12/08 01:00:29;;;;;;;;;;;;;;;;;;5096046;28;19912;-81
2023/12/08 01:02:54;;;;;;;;;;;;;;;;;;5096362;28;20303;-81
2023/12/08 01:05:19;;;;;;;;;;;;;;;;;;5095926;28;20364;-81
2023/12/08 01:07:44;;;;;;;;;;;;;;;;;;5095788;28;20430;-81
2023/12/08 01:10:09;;;;;;;;;;;;;;;;;;5097058;28;19908;-81
2023/12/08 01:12:35;;;;;;;;;;;;;;;;;;5096792;28;19908;-81
2023/12/08 01:15:00;;;;;;;;;;;;;;;;;;5096180;28;20369;-81
2023/12/08 01:17:25;;;;;;;;;;;;;;;;;;5096945;28;20373;-80
2023/12/08 01:19:51;;;;;;;;;;;;;;;;;;5095713;28;20369;-81
2023/12/08 01:22:16;;;;;;;;;;;;;;;;;;5097779;28;19908;-81
2023/12/08 01:24:41;;;;;;;;;;;;;;;;;;5098797;28;19959;-81
2023/12/08 01:27:06;;;;;;;;;;;;;;;;;;5094024;28;20002;-81
2023/12/08 01:29:31;;;;;;;;;;;;;;;;;;5098879;28;19908;-81
2023/12/08 01:31:57;;;;;;;;;;;;;;;;;;5100827;28;19908;-82
2023/12/08 01:34:22;;;;;;;;;;;;;;;;;;5092207;28;19912;-81
2023/12/08 01:36:47;;;;;;;;;;;;;;;;;;5100041;28;19908;-81
2023/12/08 01:39:12;;;;;;;;;;;;;;;;;;5092752;28;19909;-81
2023/12/08 01:41:38;;;;;;;;;;;;;;;;;;5088270;28;19952;-81
2023/12/08 01:44:03;;;;;;;;;;;;;;;;;;5098925;28;19915;-81
2023/12/08 01:46:28;;;;;;;;;;;;;;;;;;5098939;28;19977;-81
2023/12/08 01:48:53;;;;;;;;;;;;;;;;;;5098360;28;19933;-81
2023/12/08 01:51:18;;;;;;;;;;;;;;;;;;5099012;28;19908;-81
2023/12/08 01:53:43;;;;;;;;;;;;;;;;;;5089936;28;19916;-81
2023/12/08 01:56:09;;;;;;;;;;;;;;;;;;5099273;28;19912;-81
2023/12/08 01:58:34;;;;;;;;;;;;;;;;;;5099087;28;19908;-80
2023/12/08 02:00:59;;;;;;;;;;;;;;;;;;5098935;28;19908;-81
2023/12/08 02:03:24;;;;;;;;;;;;;;;;;;5099395;28;19908;-81
2023/12/08 02:05:49;;;;;;;;;;;;;;;;;;5099283;28;20358;-81
2023/12/08 02:08:14;;;;;;;;;;;;;;;;;;5098798;28;19908;-81
2023/12/08 02:10:39;;;;;;;;;;;;;;;;;;5099157;28;19908;-81
2023/12/08 02:13:04;;;;;;;;;;;;;;;;;;5097948;28;19919;-81
2023/12/08 02:15:29;;;;;;;;;;;;;;;;;;5088523;28;19914;-81
2023/12/08 02:17:56;;;;;;;;;;;;;;;;;;5081790;28;19971;-81
2023/12/08 02:20:22;;;;;;;;;;;;;;;;;;5097530;28;19928;-81
2023/12/08 02:22:47;;;;;;;;;;;;;;;;;;5086726;28;19908;-81
2023/12/08 02:25:12;;;;;;;;;;;;;;;;;;5091648;28;19915;-81
2023/12/08 02:27:37;;;;;;;;;;;;;;;;;;5095935;28;19915;-81
2023/12/08 02:30:02;;;;;;;;;;;;;;;;;;5094610;28;19908;-81
2023/12/08 02:32:27;;;;;;;;;;;;;;;;;;5096765;28;19908;-81
2023/12/08 02:34:52;;;;;;;;;;;;;;;;;;5096692;28;19908;-80
2023/12/08 02:37:17;;;;;;;;;;;;;;;;;;5095985;28;19916;-80
2023/12/08 02:39:42;;;;;;;;;;;;;;;;;;5094576;28;20389;-81
2023/12/08 02:42:08;;;;;;;;;;;;;;;;;;5095351;28;19936;-81
2023/12/08 02:44:33;;;;;;;;;;;;;;;;;;5095652;28;19943;-81
2023/12/08 02:46:58;;;;;;;;;;;;;;;;;;5096844;28;19958;-81
2023/12/08 02:49:23;;;;;;;;;;;;;;;;;;5098884;28;19915;-80
2023/12/08 02:51:48;;;;;;;;;;;;;;;;;;5098203;28;19961;-80
2023/12/08 02:54:13;;;;;;;;;;;;;;;;;;5097324;28;19912;-81
2023/12/08 02:56:38;;;;;;;;;;;;;;;;;;5097083;28;19930;-81
2023/12/08 02:59:03;;;;;;;;;;;;;;;;;;5096895;28;19908;-81
2023/12/08 03:01:28;;;;;;;;;;;;;;;;;;5089878;28;19909;-81
2023/12/08 03:03:53;;;;;;;;;;;;;;;;;;5097991;28;20352;-81
2023/12/08 03:06:19;;;;;;;;;;;;;;;;;;5095914;28;19915;-80
2023/12/08 03:08:44;;;;;;;;;;;;;;;;;;5097621;28;19908;-81
2023/12/08 03:11:09;;;;;;;;;;;;;;;;;;5097971;28;19934;-81
2023/12/08 03:13:34;;;;;;;;;;;;;;;;;;5095800;28;19912;-81
2023/12/08 03:15:59;;;;;;;;;;;;;;;;;;5089109;28;19908;-80
2023/12/08 03:18:24;;;;;;;;;;;;;;;;;;5096773;28;19908;-81
2023/12/08 03:20:49;;;;;;;;;;;;;;;;;;5093137;28;19912;-81
2023/12/08 03:23:14;;;;;;;;;;;;;;;;;;5092044;28;19931;-81
2023/12/08 03:25:39;;;;;;;;;;;;;;;;;;5095862;28;20277;-81
2023/12/08 03:28:04;;;;;;;;;;;;;;;;;;5096662;28;20186;-81
2023/12/08 03:30:30;;;;;;;;;;;;;;;;;;5093025;28;19920;-81
2023/12/08 03:32:55;;;;;;;;;;;;;;;;;;5098010;28;19912;-81
2023/12/08 03:35:20;;;;;;;;;;;;;;;;;;5098205;28;19942;-81
2023/12/08 03:37:45;;;;;;;;;;;;;;;;;;5096891;28;19908;-81
2023/12/08 03:40:10;;;;;;;;;;;;;;;;;;5097990;28;19912;-81
2023/12/08 03:42:36;;;;;;;;;;;;;;;;;;5097334;28;19908;-82
2023/12/08 03:45:01;;;;;;;;;;;;;;;;;;5095446;28;19908;-81
2023/12/08 03:47:26;;;;;;;;;;;;;;;;;;5096204;28;19943;-80
2023/12/08 03:49:52;;;;;;;;;;;;;;;;;;5095735;28;19919;-81
2023/12/08 03:52:17;;;;;;;;;;;;;;;;;;5098189;28;19916;-81
2023/12/08 03:54:42;;;;;;;;;;;;;;;;;;5099851;28;19955;-80
2023/12/08 03:57:07;;;;;;;;;;;;;;;;;;5100827;28;19944;-81
2023/12/08 03:59:32;;;;;;;;;;;;;;;;;;5099724;28;19915;-81
2023/12/08 04:01:57;;;;;;;;;;;;;;;;;;5092328;28;19916;-81
2023/12/08 04:04:22;;;;;;;;;;;;;;;;;;5099626;28;19908;-81
2023/12/08 04:06:47;;;;;;;;;;;;;;;;;;5099397;28;19908;-81
2023/12/08 04:09:12;;;;;;;;;;;;;;;;;;5100763;28;19916;-81
2023/12/08 04:11:37;;;;;;;;;;;;;;;;;;5100407;28;20062;-81
2023/12/08 04:14:03;;;;;;;;;;;;;;;;;;5099060;28;20014;-81
2023/12/08 04:16:28;;;;;;;;;;;;;;;;;;5099727;28;19922;-81
2023/12/08 04:18:53;;;;;;;;;;;;;;;;;;5100137;28;19908;-81
2023/12/08 04:21:18;;;;;;;;;;;;;;;;;;5100538;28;19915;-81
2023/12/08 04:23:43;;;;;;;;;;;;;;;;;;5098566;28;19915;-81
2023/12/08 04:26:08;;;;;;;;;;;;;;;;;;5099096;28;19908;-81
2023/12/08 04:28:33;;;;;;;;;;;;;;;;;;5098184;28;19908;-81
2023/12/08 04:30:58;;;;;;;;;;;;;;;;;;5100041;28;19915;-81
2023/12/08 04:33:23;;;;;;;;;;;;;;;;;;5098409;28;19912;-81
2023/12/08 04:35:48;;;;;;;;;;;;;;;;;;5097816;28;21179;-81
2023/12/08 04:38:14;;;;;;;;;;;;;;;;;;5097585;28;20290;-81
2023/12/08 04:40:39;;;;;;;;;;;;;;;;;;5099707;28;19912;-81
2023/12/08 04:43:04;;;;;;;;;;;;;;;;;;5099249;28;19908;-81
2023/12/08 04:45:29;;;;;;;;;;;;;;;;;;5099833;28;19916;-81
2023/12/08 04:47:54;;;;;;;;;;;;;;;;;;5099023;28;19915;-81
2023/12/08 04:50:19;;;;;;;;;;;;;;;;;;5100200;28;19909;-81
2023/12/08 04:52:44;;;;;;;;;;;;;;;;;;5100421;28;19999;-81
2023/12/08 04:55:09;;;;;;;;;;;;;;;;;;5100011;28;19975;-81
2023/12/08 04:57:34;;;;;;;;;;;;;;;;;;5100069;28;19907;-81
2023/12/08 05:00:00;;;;;;;;;;;;;;;;;;5100403;28;19912;-81
2023/12/08 05:02:25;;;;;;;;;;;;;;;;;;5098427;28;20352;-81
2023/12/08 05:04:50;;;;;;;;;;;;;;;;;;5099944;28;19943;-81
2023/12/08 05:07:15;;;;;;;;;;;;;;;;;;5100100;28;19937;-81
2023/12/08 05:09:40;;;;;;;;;;;;;;;;;;5099051;28;20317;-82
2023/12/08 05:12:05;;;;;;;;;;;;;;;;;;5098159;28;19943;-81
2023/12/08 05:14:31;;;;;;;;;;;;;;;;;;5090157;28;19960;-81
2023/12/08 05:16:56;;;;;;;;;;;;;;;;;;5091963;28;19955;-81
2023/12/08 05:19:22;;;;;;;;;;;;;;;;;;5097051;28;19915;-81
2023/12/08 05:21:47;;;;;;;;;;;;;;;;;;5092919;28;20304;-82
2023/12/08 05:24:12;;;;;;;;;;;;;;;;;;5093218;28;19931;-81
2023/12/08 05:26:37;;;;;;;;;;;;;;;;;;5092975;28;20289;-81
2023/12/08 05:29:02;;;;;;;;;;;;;;;;;;5093023;28;20402;-81
2023/12/08 05:31:27;;;;;;;;;;;;;;;;;;5084543;28;19909;-82
2023/12/08 05:33:52;;;;;;;;;;;;;;;;;;5088633;28;19954;-81
2023/12/08 05:36:17;;;;;;;;;;;;;;;;;;5093759;28;20015;-82
2023/12/08 05:38:43;;;;;;;;;;;;;;;;;;5092624;28;19908;-81
2023/12/08 05:41:08;;;;;;;;;;;;;;;;;;5089333;28;19912;-81
2023/12/08 05:43:33;;;;;;;;;;;;;;;;;;5092323;28;19908;-81
2023/12/08 05:45:58;;;;;;;;;;;;;;;;;;5092655;28;19908;-82
2023/12/08 05:48:23;;;;;;;;;;;;;;;;;;5092093;28;19908;-81
2023/12/08 05:50:48;;;;;;;;;;;;;;;;;;5093241;28;19923;-82
2023/12/08 05:53:13;;;;;;;;;;;;;;;;;;5092178;28;20273;-81
2023/12/08 05:55:39;;;;;;;;;;;;;;;;;;5092216;28;19908;-82
2023/12/08 05:58:04;;;;;;;;;;;;;;;;;;5093379;28;19915;-82
2023/12/08 06:00:29;;;;;;;;;;;;;;;;;;5084960;28;20251;-82
2023/12/08 06:02:54;;;;;;;;;;;;;;;;;;5091945;28;20388;-81
2023/12/08 06:05:19;;;;;;;;;;;;;;;;;;5093404;28;19920;-81
2023/12/08 06:07:44;;;;;;;;;;;;;;;;;;5093160;28;19908;-81
2023/12/08 06:10:11;;;;;;;;;;;;;;;;;;5091838;28;20003;-82
2023/12/08 06:12:36;;;;;;;;;;;;;;;;;;5093667;28;19966;-82
2023/12/08 06:15:02;;;;;;;;;;;;;;;;;;5094536;28;20350;-82
2023/12/08 06:17:27;;;;;;;;;;;;;;;;;;5095206;28;19947;-82
2023/12/08 06:19:52;;;;;;;;;;;;;;;;;;5094653;28;19912;-82
2023/12/08 06:22:18;;;;;;;;;;;;;;;;;;5096134;28;19908;-82
2023/12/08 06:24:43;;;;;;;;;;;;;;;;;;5096159;28;19934;-82
2023/12/08 06:27:08;;;;;;;;;;;;;;;;;;5094593;28;19939;-82
2023/12/08 06:29:33;;;;;;;;;;;;;;;;;;5094373;28;19943;-82
2023/12/08 06:31:58;;;;;;;;;;;;;;;;;;5095666;28;20459;-82
2023/12/08 06:34:23;;;;;;;;;;;;;;;;;;5095297;28;20322;-82
2023/12/08 06:36:48;;;;;;;;;;;;;;;;;;5094061;28;20003;-82
2023/12/08 06:39:15;;;;;;;;;;;;;;;;;;5094141;28;19909;-82
2023/12/08 06:41:40;;;;;;;;;;;;;;;;;;5093708;28;19919;-82
2023/12/08 06:44:05;;;;;;;;;;;;;;;;;;5093811;28;19908;-82
2023/12/08 06:46:30;;;;;;;;;;;;;;;;;;5095477;28;19957;-82
2023/12/08 06:48:55;;;;;;;;;;;;;;;;;;5095624;28;19934;-82
2023/12/08 06:51:20;;;;;;;;;;;;;;;;;;5094624;28;19966;-82
2023/12/08 06:53:46;;;;;;;;;;;;;;;;;;5093447;28;19912;-82
2023/12/08 06:56:11;;;;;;;;;;;;;;;;;;5094692;28;19912;-81
2023/12/08 06:58:37;;;;;;;;;;;;;;;;;;5094222;28;19977;-82
2023/12/08 07:01:02;;;;;;;;;;;;;;;;;;5087315;28;19986;-82
2023/12/08 07:03:27;;;;;;;;;;;;;;;;;;5086475;28;19966;-82
2023/12/08 07:05:52;;;;;;;;;;;;;;;;;;5087967;28;19952;-79
2023/12/08 07:08:17;;;;;;;;;;;;;;;;;;5095371;28;20323;-82
2023/12/08 07:10:42;;;;;;;;;;;;;;;;;;5094881;28;19909;-82
2023/12/08 07:13:07;;;;;;;;;;;;;;;;;;5094375;28;20361;-82
2023/12/08 07:15:32;;;;;;;;;;;;;;;;;;5095797;28;20365;-82
2023/12/08 07:17:58;;;;;;;;;;;;;;;;;;5089939;28;19909;-82
2023/12/08 07:20:23;;;;;;;;;;;;;;;;;;5090109;28;19941;-83
2023/12/08 07:22:48;;;;;;;;;;;;;;;;;;5095229;28;19962;-81
2023/12/08 07:25:15;;;;;;;;;;;;;;;;;;5094080;28;20358;-82
2023/12/08 07:27:40;;;;;;;;;;;;;;;;;;5096660;28;19908;-82
2023/12/08 07:30:05;;;;;;;;;;;;;;;;;;5096747;28;19915;-83
2023/12/08 07:32:30;;;;;;;;;;;;;;;;;;5096913;28;19912;-82
2023/12/08 07:34:55;;;;;;;;;;;;;;;;;;5096328;28;19907;-84
2023/12/08 07:37:20;;;;;;;;;;;;;;;;;;5099767;28;19967;-82
2023/12/08 07:39:45;;;;;;;;;;;;;;;;;;5100377;28;19966;-82
2023/12/08 07:42:10;;;;;;;;;;;;;;;;;;5100780;28;20425;-82
2023/12/08 07:44:35;;;;;;;;;;;;;;;;;;5100005;28;20429;-83
2023/12/08 07:47:01;;;;;;;;;;;;;;;;;;5101605;28;19912;-82
2023/12/08 07:49:26;;;;;;;;;;;;;;;;;;5103137;28;19915;-82
2023/12/08 07:51:51;;;;;;;;;;;;;;;;;;5101659;28;19947;-81
2023/12/08 07:54:16;;;;;;;;;;;;;;;;;;5101853;28;19919;-81
2023/12/08 07:56:41;;;;;;;;;;;;;;;;;;5101953;28;19957;-81
2023/12/08 07:59:07;;;;;;;;;;;;;;;;;;5101463;28;20358;-81
2023/12/08 08:01:32;;;;;;;;;;;;;;;;;;5101710;28;19908;-82
2023/12/08 08:03:57;;;;;;;;;;;;;;;;;;5101873;28;19931;-81
2023/12/08 08:06:22;;;;;;;;;;;;;;;;;;5101688;28;19915;-81
2023/12/08 08:08:47;;;;;;;;;;;;;;;;;;5102525;28;20170;-82
2023/12/08 08:11:12;;;;;;;;;;;;;;;;;;5100427;28;19908;-82
2023/12/08 08:13:37;;;;;;;;;;;;;;;;;;5102244;28;19912;-81
2023/12/08 08:16:02;;;;;;;;;;;;;;;;;;5096686;28;19908;-82
2023/12/08 08:18:29;;;;;;;;;;;;;;;;;;5088695;28;20301;-81
2023/12/08 08:20:54;;;;;;;;;;;;;;;;;;5091816;28;19916;-81
2023/12/08 08:23:19;;;;;;;;;;;;;;;;;;5091429;28;19913;-81
2023/12/08 08:25:44;;;;;;;;;;;;;;;;;;5094992;28;19912;-81
2023/12/08 08:28:09;;;;;;;;;;;;;;;;;;5092890;28;19909;-80
2023/12/08 08:30:35;;;;;;;;;;;;;;;;;;5100166;28;19912;-80
2023/12/08 08:33:00;;;;;;;;;;;;;;;;;;5100503;28;19922;-80
2023/12/08 08:35:25;;;;;;;;;;;;;;;;;;5093341;28;20258;-80
2023/12/08 08:37:50;;;;;;;;;;;;;;;;;;5093061;28;20370;-79
2023/12/08 08:40:15;;;;;;;;;;;;;;;;;;5099042;28;19908;-79
2023/12/08 08:42:40;;;;;;;;;;;;;;;;;;5098623;28;19912;-79
2023/12/08 08:45:06;;;;;;;;;;;;;;;;;;5100487;28;19916;-79
2023/12/08 08:47:31;;;;;;;;;;;;;;;;;;5097457;28;20354;-79
2023/12/08 08:49:56;;;;;;;;;;;;;;;;;;5090768;28;19916;-78
2023/12/08 08:52:21;;;;;;;;;;;;;;;;;;5088548;28;19915;-79
2023/12/08 08:54:47;;;;;;;;;;;;;;;;;;5098540;28;19935;-79
2023/12/08 08:57:12;;;;;;;;;;;;;;;;;;5091798;28;20369;-79
2023/12/08 08:59:37;;;;;;;;;;;;;;;;;;5095314;28;20300;-79
2023/12/08 09:02:02;;;;;;;;;;;;;;;;;;5091511;28;19958;-78
2023/12/08 09:04:27;;;;;;;;;;;;;;;;;;5092570;28;19913;-79
2023/12/08 09:06:52;;;;;;;;;;;;;;;;;;5092378;28;19912;-79
2023/12/08 09:09:17;;;;;;;;;;;;;;;;;;5087926;28;19908;-79
2023/12/08 09:11:42;;;;;;;;;;;;;;;;;;5092683;28;19908;-79
2023/12/08 09:14:07;;;;;;;;;;;;;;;;;;5093991;28;20396;-79
2023/12/08 09:16:32;;;;;;;;;;;;;;;;;;5093974;28;19915;-80
2023/12/08 09:18:58;;;;;;;;;;;;;;;;;;5093835;28;19908;-79
2023/12/08 09:21:23;;;;;;;;;;;;;;;;;;5093818;28;19912;-79
2023/12/08 09:23:48;;;;;;;;;;;;;;;;;;5093798;28;21876;-79
2023/12/08 09:26:13;;;;;;;;;;;;;;;;;;5093673;28;19908;-79
2023/12/08 09:28:38;;;;;;;;;;;;;;;;;;5094733;28;19912;-79
2023/12/08 09:31:03;;;;;;;;;;;;;;;;;;5093531;28;19915;-79
2023/12/08 09:33:28;;;;;;;;;;;;;;;;;;5094786;28;19927;-79
2023/12/08 09:35:55;;;;;;;;;;;;;;;;;;5093137;28;19908;-79
2023/12/08 09:38:20;;;;;;;;;;;;;;;;;;5092800;28;19908;-79
2023/12/08 09:40:45;;;;;;;;;;;;;;;;;;5094093;28;19908;-79
2023/12/08 09:43:10;;;;;;;;;;;;;;;;;;5093854;28;19908;-79
2023/12/08 09:45:35;;;;;;;;;;;;;;;;;;5093819;28;19915;-79
2023/12/08 09:48:00;;;;;;;;;;;;;;;;;;5092278;28;20376;-79
2023/12/08 09:50:25;;;;;;;;;;;;;;;;;;5108409;28;19908;-80
2023/12/08 09:52:50;;;;;;;;;;;;;;;;;;5107205;28;19926;-80
2023/12/08 09:55:16;;;;;;;;;;;;;;;;;;5106360;28;19913;-80
2023/12/08 09:57:41;;;;;;;;;;;;;;;;;;5105656;28;19995;-80
2023/12/08 10:00:10;;;;;;;;;;;;;;;;;;5105929;28;19931;-80
2023/12/08 10:02:35;;;;;;;;;;;;;;;;;;5101993;28;20342;-79
2023/12/08 10:05:00;;;;;;;;;;;;;;;;;;5097371;28;19911;-80
2023/12/08 10:07:25;;;;;;;;;;;;;;;;;;5092176;28;19909;-80
2023/12/08 10:09:50;;;;;;;;;;;;;;;;;;5089932;28;19942;-81
2023/12/08 10:12:15;;;;;;;;;;;;;;;;;;5095667;28;19991;-81
2023/12/08 10:14:40;;;;;;;;;;;;;;;;;;5096366;28;19977;-78
2023/12/08 10:17:06;;;;;;;;;;;;;;;;;;5101790;28;20541;-81
2023/12/08 10:19:31;;;;;;;;;;;;;;;;;;5093819;28;19980;-80
2023/12/08 10:21:56;;;;;;;;;;;;;;;;;;5102599;28;20538;-80
2023/12/08 10:24:21;;;;;;;;;;;;;;;;;;5104319;28;19912;-78
2023/12/08 10:26:46;;;;;;;;;;;;;;;;;;5092998;28;19908;-80
2023/12/08 10:29:11;;;;;;;;;;;;;;;;;;5099691;28;19919;-81
2023/12/08 10:31:36;;;;;;;;;;;;;;;;;;5102248;28;19923;-80
2023/12/08 10:34:01;;;;;;;;;;;;;;;;;;5090933;28;19918;-83
2023/12/08 10:36:26;;;;;;;;;;;;;;;;;;5090415;28;19909;-81
2023/12/08 10:38:52;;;;;;;;;;;;;;;;;;5095700;28;19913;-81
2023/12/08 10:41:17;;;;;;;;;;;;;;;;;;5095426;28;19979;-82
2023/12/08 10:43:43;;;;;;;;;;;;;;;;;;5101360;28;19908;-82
2023/12/08 10:46:08;;;;;;;;;;;;;;;;;;5099674;28;19908;-82
2023/12/08 10:48:34;;;;;;;;;;;;;;;;;;5098770;28;19908;-81
2023/12/08 10:50:59;;;;;;;;;;;;;;;;;;5100600;28;19909;-82
2023/12/08 10:53:24;;;;;;;;;;;;;;;;;;5101418;28;19916;-81
2023/12/08 10:55:49;;;;;;;;;;;;;;;;;;5101459;28;19923;-81
2023/12/08 10:58:15;;;;;;;;;;;;;;;;;;5101830;28;19915;-81
2023/12/08 11:00:40;;;;;;;;;;;;;;;;;;5100669;28;19916;-81
2023/12/08 11:03:05;;;;;;;;;;;;;;;;;;5099291;28;19916;-81
2023/12/08 11:05:30;;;;;;;;;;;;;;;;;;5101249;28;19915;-80
2023/12/08 11:07:55;;;;;;;;;;;;;;;;;;5096892;28;19908;-81
2023/12/08 11:10:20;;;;;;;;;;;;;;;;;;5093014;28;19908;-84
2023/12/08 11:12:46;;;;;;;;;;;;;;;;;;5091989;28;19970;-80
2023/12/08 11:15:16;;;;;;;;;;;;;;;;;;5091879;28;20357;-81
2023/12/08 11:17:41;;;;;;;;;;;;;;;;;;5093045;28;19950;-80
2023/12/08 11:20:07;;;;;;;;;;;;;;;;;;5093227;28;19908;-81
2023/12/08 11:22:33;;;;;;;;;;;;;;;;;;5091679;28;19999;-80
2023/12/08 11:24:58;;;;;;;;;;;;;;;;;;5091593;28;19989;-80
2023/12/08 11:27:23;;;;;;;;;;;;;;;;;;5092065;28;19908;-80
2023/12/08 11:29:48;;;;;;;;;;;;;;;;;;5091655;28;19908;-80
2023/12/08 11:32:13;;;;;;;;;;;;;;;;;;5092938;28;19934;-80
2023/12/08 11:34:38;;;;;;;;;;;;;;;;;;5091837;28;19912;-81
2023/12/08 11:37:04;;;;;;;;;;;;;;;;;;5093208;28;20350;-78
2023/12/08 11:39:29;;;;;;;;;;;;;;;;;;5091897;28;19915;-79
2023/12/08 11:41:54;;;;;;;;;;;;;;;;;;5092011;28;20045;-78
2023/12/08 11:44:19;;;;;;;;;;;;;;;;;;5093251;28;19959;-83
2023/12/08 11:46:44;;;;;;;;;;;;;;;;;;5091503;28;20378;-78
2023/12/08 11:49:09;;;;;;;;;;;;;;;;;;5091201;28;19908;-78
2023/12/08 11:51:34;;;;;;;;;;;;;;;;;;5091325;28;19912;-77
2023/12/08 11:54:05;;;;;;;;;;;;;;;;;;5083781;28;19923;-77
2023/12/08 11:56:30;;;;;;;;;;;;;;;;;;5075941;28;19975;-77
2023/12/08 11:58:55;;;;;;;;;;;;;;;;;;5092804;28;19908;-78
2023/12/08 12:01:20;;;;;;;;;;;;;;;;;;5092696;28;19912;-77
2023/12/08 12:03:45;;;;;;;;;;;;;;;;;;5092433;28;19969;-77
2023/12/08 12:06:11;;;;;;;;;;;;;;;;;;5092807;28;19912;-77
2023/12/08 12:08:37;;;;;;;;;;;;;;;;;;5092312;28;20293;-77
2023/12/08 12:11:02;;;;;;;;;;;;;;;;;;5092567;28;19953;-77
2023/12/08 12:13:27;;;;;;;;;;;;;;;;;;5093712;28;19916;-77
2023/12/08 12:15:52;;;;;;;;;;;;;;;;;;5096041;28;19940;-77
2023/12/08 12:18:17;;;;;;;;;;;;;;;;;;5094554;28;20037;-77
2023/12/08 12:20:42;;;;;;;;;;;;;;;;;;5094591;28;19915;-77
2023/12/08 12:23:08;;;;;;;;;;;;;;;;;;5096171;28;20344;-77
2023/12/08 12:25:33;;;;;;;;;;;;;;;;;;5095447;28;19908;-77
2023/12/08 12:27:58;;;;;;;;;;;;;;;;;;5094507;28;19908;-77
2023/12/08 12:30:23;;;;;;;;;;;;;;;;;;5095464;28;19916;-76
2023/12/08 12:32:51;;;;;;;;;;;;;;;;;;5093869;28;19916;-76
2023/12/08 12:35:16;;;;;;;;;;;;;;;;;;5094022;28;19908;-76
2023/12/08 12:37:42;;;;;;;;;;;;;;;;;;5095113;28;19908;-76
2023/12/08 12:40:07;;;;;;;;;;;;;;;;;;5093629;28;20266;-76
2023/12/08 12:42:33;;;;;;;;;;;;;;;;;;5093604;28;19909;-76
2023/12/08 12:44:58;;;;;;;;;;;;;;;;;;5095028;28;19908;-76
2023/12/08 12:47:24;;;;;;;;;;;;;;;;;;5093771;28;19943;-76
2023/12/08 12:49:49;;;;;;;;;;;;;;;;;;5093419;28;19916;-76
2023/12/08 12:52:14;;;;;;;;;;;;;;;;;;5094779;28;19946;-76
2023/12/08 12:54:42;;;;;;;;;;;;;;;;;;5094726;28;19912;-77
2023/12/08 12:57:07;;;;;;;;;;;;;;;;;;5094941;28;19908;-76
2023/12/08 12:59:32;;;;;;;;;;;;;;;;;;5093300;28;19915;-76
2023/12/08 13:01:58;;;;;;;;;;;;;;;;;;5093100;28;19912;-76
2023/12/08 13:04:24;;;;;;;;;;;;;;;;;;5094476;28;20229;-76
2023/12/08 13:06:50;;;;;;;;;;;;;;;;;;5093197;28;19916;-76
2023/12/08 13:09:15;;;;;;;;;;;;;;;;;;5093367;28;19916;-77
2023/12/08 13:11:40;;;;;;;;;;;;;;;;;;5095120;28;19995;-77
2023/12/08 13:14:05;;;;;;;;;;;;;;;;;;5092935;28;20373;-78
2023/12/08 13:16:30;;;;;;;;;;;;;;;;;;5089093;28;19916;-76
2023/12/08 13:18:56;;;;;;;;;;;;;;;;;;5092625;28;19969;-77
2023/12/08 13:21:21;;;;;;;;;;;;;;;;;;5094168;28;19912;-76
2023/12/08 13:23:47;;;;;;;;;;;;;;;;;;5095480;28;19929;-77
2023/12/08 13:26:12;;;;;;;;;;;;;;;;;;5094469;28;19943;-77
2023/12/08 13:28:37;;;;;;;;;;;;;;;;;;5094485;28;20287;-78
2023/12/08 13:31:03;;;;;;;;;;;;;;;;;;5094096;28;19912;-77
2023/12/08 13:33:28;;;;;;;;;;;;;;;;;;5094971;28;19912;-77
2023/12/08 13:35:53;;;;;;;;;;;;;;;;;;5094777;28;19939;-77
2023/12/08 13:38:18;;;;;;;;;;;;;;;;;;5094877;28;19915;-77
2023/12/08 13:40:43;;;;;;;;;;;;;;;;;;5094001;28;19915;-76
2023/12/08 13:43:08;;;;;;;;;;;;;;;;;;5093712;28;19957;-77
2023/12/08 13:45:33;;;;;;;;;;;;;;;;;;5093963;28;19908;-76
2023/12/08 13:47:58;;;;;;;;;;;;;;;;;;5095087;28;19942;-77
2023/12/08 13:50:24;;;;;;;;;;;;;;;;;;5093408;28;19908;-76
2023/12/08 13:52:49;;;;;;;;;;;;;;;;;;5093271;28;20370;-76
2023/12/08 13:55:14;;;;;;;;;;;;;;;;;;5094041;28;19909;-78
2023/12/08 13:57:39;;;;;;;;;;;;;;;;;;5095505;28;19919;-78
2023/12/08 14:00:05;;;;;;;;;;;;;;;;;;5094224;28;19908;-78
2023/12/08 14:02:31;;;;;;;;;;;;;;;;;;5094379;28;20293;-78
2023/12/08 14:04:56;;;;;;;;;;;;;;;;;;5094008;28;19908;-79
2023/12/08 14:07:21;;;;;;;;;;;;;;;;;;5095028;28;20376;-78
2023/12/08 14:09:46;;;;;;;;;;;;;;;;;;5093709;28;19908;-78
2023/12/08 14:12:11;;;;;;;;;;;;;;;;;;5093882;28;19951;-77
2023/12/08 14:14:36;;;;;;;;;;;;;;;;;;5093311;28;19958;-78
2023/12/08 14:17:01;;;;;;;;;;;;;;;;;;5093566;28;20322;-79
2023/12/08 14:19:27;;;;;;;;;;;;;;;;;;5085593;28;20545;-79
2023/12/08 14:21:52;;;;;;;;;;;;;;;;;;5086433;28;20445;-79
2023/12/08 14:24:17;;;;;;;;;;;;;;;;;;5093536;28;19915;-79
2023/12/08 14:26:42;;;;;;;;;;;;;;;;;;5090295;28;19908;-79
2023/12/08 14:29:07;;;;;;;;;;;;;;;;;;5094038;28;20309;-79
2023/12/08 14:31:32;;;;;;;;;;;;;;;;;;5086453;28;19908;-79
2023/12/08 14:33:58;;;;;;;;;;;;;;;;;;5089669;28;20389;-78
2023/12/08 14:36:23;;;;;;;;;;;;;;;;;;5083739;28;19915;-79
2023/12/08 14:38:48;;;;;;;;;;;;;;;;;;5093917;28;19962;-79
2023/12/08 14:41:14;;;;;;;;;;;;;;;;;;5095943;28;20277;-78
2023/12/08 14:43:39;;;;;;;;;;;;;;;;;;5094574;28;20365;-78
2023/12/08 14:46:04;;;;;;;;;;;;;;;;;;5096306;28;20411;-79
2023/12/08 14:48:29;;;;;;;;;;;;;;;;;;5094118;28;19908;-78
2023/12/08 14:50:56;;;;;;;;;;;;;;;;;;5096050;28;19999;-78
2023/12/08 14:53:22;;;;;;;;;;;;;;;;;;5094264;28;19996;-79
2023/12/08 14:55:48;;;;;;;;;;;;;;;;;;5095105;28;20474;-78
2023/12/08 14:58:14;;;;;;;;;;;;;;;;;;5095462;28;20340;-79
2023/12/08 15:00:39;;;;;;;;;;;;;;;;;;5086618;28;20007;-78
2023/12/08 15:03:04;;;;;;;;;;;;;;;;;;5087196;28;19908;-78
2023/12/08 15:05:29;;;;;;;;;;;;;;;;;;5094810;28;20277;-79
2023/12/08 15:07:55;;;;;;;;;;;;;;;;;;5088991;28;19912;-78
2023/12/08 15:10:20;;;;;;;;;;;;;;;;;;5084029;28;19915;-79
2023/12/08 15:12:45;;;;;;;;;;;;;;;;;;5092001;28;19965;-79
2023/12/08 15:15:10;;;;;;;;;;;;;;;;;;5093633;28;20016;-78
2023/12/08 15:17:35;;;;;;;;;;;;;;;;;;5083851;28;19909;-82
2023/12/08 15:20:04;;;;;;;;;;;;;;;;;;5084917;28;19912;-82
2023/12/08 15:22:29;;;;;;;;;;;;;;;;;;5091684;28;19914;-81
2023/12/08 15:24:54;;;;;;;;;;;;;;;;;;5081382;28;20284;-78
2023/12/08 15:27:19;;;;;;;;;;;;;;;;;;5087337;28;19912;-79
2023/12/08 15:29:44;;;;;;;;;;;;;;;;;;5093198;28;20299;-78
2023/12/08 15:32:09;;;;;;;;;;;;;;;;;;5096608;28;19915;-78
2023/12/08 15:34:38;;;;;;;;;;;;;;;;;;5088453;28;19917;-79
2023/12/08 15:37:03;;;;;;;;;;;;;;;;;;5087177;28;20286;-79
2023/12/08 15:39:28;;;;;;;;;;;;;;;;;;5091410;28;19909;-78
2023/12/08 15:41:54;;;;;;;;;;;;;;;;;;5092673;28;19920;-79
2023/12/08 15:44:19;;;;;;;;;;;;;;;;;;5098471;28;19915;-78
2023/12/08 15:46:44;;;;;;;;;;;;;;;;;;5086888;28;19934;-79
2023/12/08 15:49:09;;;;;;;;;;;;;;;;;;5097436;28;19919;-79
2023/12/08 15:51:34;;;;;;;;;;;;;;;;;;5092891;28;19981;-78
2023/12/08 15:54:00;;;;;;;;;;;;;;;;;;5092834;28;19912;-78
2023/12/08 15:56:25;;;;;;;;;;;;;;;;;;5101748;28;19915;-79
2023/12/08 15:58:51;;;;;;;;;;;;;;;;;;5100315;28;19912;-79
2023/12/08 16:01:37;;;;;;;;;;;;;;;;;;5100535;28;19908;-79
2023/12/08 16:04:01;;;;;;;;;;;;;;;;;;5091974;28;19912;-78
2023/12/08 16:06:26;;;;;;;;;;;;;;;;;;5100433;28;19912;-78
2023/12/08 16:08:51;;;;;;;;;;;;;;;;;;5099421;28;19908;-78
2023/12/08 16:11:16;;;;;;;;;;;;;;;;;;5099463;28;19908;-78
2023/12/08 16:13:42;;;;;;;;;;;;;;;;;;5099119;28;19939;-78
2023/12/08 16:16:07;;;;;;;;;;;;;;;;;;5099436;28;19908;-78
2023/12/08 16:18:32;;;;;;;;;;;;;;;;;;5098822;28;19919;-78
2023/12/08 16:20:57;;;;;;;;;;;;;;;;;;5097673;28;19908;-78
2023/12/08 16:23:22;;;;;;;;;;;;;;;;;;5098173;28;19912;-78
2023/12/08 16:25:47;;;;;;;;;;;;;;;;;;5094952;28;19935;-78
2023/12/08 16:28:12;;;;;;;;;;;;;;;;;;5099338;28;20298;-79
2023/12/08 16:30:37;;;;;;;;;;;;;;;;;;5102660;28;19914;-79